Skip Navigation Links
NOAA logo - Click to go to the NOAA homepage
NOAA's National Weather Service
Alaska Aviation Weather Unit
  NWS logo - Click to go to the NWS homepage
Left Navbar Graphic     21 AKDT = 05 GMT

   
NOAA is celebrating 200 years of science, service, and stewardship. Visit the NOAA 200th celebration Web site to learn more.
USA.gov is the U.S. Government's official Web portal to all Federal, state and local government Web resources and services.
Facebook
NWS on Facebook

Important Change Regarding the AAWU Web Presence

 

Over the last several months, the AAWU has been working to navigate its webpages to a nationally supported server. Security, as well as other needs, have necessitated the change.  In the process, we have made an effort to enhance the functionality of our website, as well as some of our products. As of June 27, 2017, aawu.arh.noaa.gov will be discontinued. The new AAWU web address is weather.gov/aawu. It is now live and will run in-parallel with the old site until it is discontinued. Please send any feedback or questions regarding the new webpages to nws.ar.aawu.webauthors@noaa.gov.  Thank you for your patience during this time of transition.
AAWU Home :: Display TAF Add Bookmark
TAF PAKW 260430Z 2605/2624 00000KT P6SM SCT011 OVC024
     FM260600 VRB03KT P6SM VCSH SCT015 BKN050
     FM261200 24004KT P6SM VCSH FEW005 BKN050
      AMD LTD TO CLD VIS AND WIND=
SPECI PAKW 252311Z AUTO 00000KT 2 1/2SM -RA BR BKN007 OVC016 11/10 A3000
     RMK AO2 P0001 T01110100 TSNO=

SPECI PAKW 252322Z AUTO 00000KT 1 1/2SM RA BR SCT006 BKN012 OVC037 12/10
     A3000 RMK AO2 P0004 T01170100 TSNO=

SPECI PAKW 252326Z AUTO 00000KT 2SM RA BR SCT006 BKN015 OVC049 11/10
     A2999 RMK AO2 P0005 T01110100 TSNO=

SPECI PAKW 252336Z AUTO 20005KT 9SM -RA SCT006 BKN014 OVC037 11/09 A3000
     RMK AO2 P0006 T01110094 TSNO=

SPECI PAKW 252346Z AUTO 19004KT 10SM FEW006 BKN027 OVC046 12/09 A2999
     RMK AO2 RAE41 P0006 T01170094 TSNO=

METAR PAKW 252353Z AUTO 21004KT 10SM SCT008 BKN027 OVC042 12/10 A2999
     RMK AO2 RAE41 SLP156 P0006 60022 T01170100 10122 20106 51002
     TSNO=

METAR PAKW 260053Z AUTO VRB03KT 10SM BKN023 OVC029 11/10 A2999 RMK AO2
     SLP155 T01110100 TSNO=

METAR PAKW 260153Z AUTO 23003KT 10SM SCT017 BKN032 OVC041 12/09 A2999
     RMK AO2 SLP153 T01170094 TSNO=

METAR PAKW 260253Z AUTO 00000KT 10SM -RA SCT012 BKN026 OVC047 11/09
     A2998 RMK AO2 RAB0155 SLP153 P0000 60000 T01110089 56003
     TSNO=

SPECI PAKW 260327Z AUTO 00000KT 10SM -RA BKN010 BKN022 OVC027 11/09
 A2998 RMK AO2 P0000 T01110094 TSNO=

METAR PAKW 260353Z AUTO 00000KT 10SM SCT011 OVC024 11/09 A2998 RMK AO2
     RAE35 SLP152 P0000 T01110094 TSNO=

SPECI PAKW 260432Z AUTO 00000KT 10SM FEW008 BKN012 OVC030 11/09 A2998
     RMK AO2 T01110094 TSNO=

SPECI PAKW 260444Z AUTO 00000KT 10SM BKN010 OVC026 11/09 A2998 RMK AO2
     CIG 007V015 T01110094 TSNO=

METAR PAKW 260453Z AUTO 00000KT 10SM BKN010 BKN026 OVC043 11/09 A2998
     RMK AO2 CIG 007V013 SLP151 T01060089 TSNO=


NOAA's National Weather Service
Alaska Aviation Weather Unit
6930 Sand Lake Road
Anchorage, AK 99502-1845
Disclaimer
Credits
Glossary
Privacy Policy
About Us
Career Opportunities
Contact AAWU Internet Services Site last modified: April, 17th 2012